Observation data for Fluvanna on 07/18/2019      Previous  Date  Next       Current Mesonet Observations  Soil Data  Daily Summary Page  Observations in Plain Language
KFVS 180500Z 17013G19KT 29/15 A2997 RMK A01 T02880151  RH  045%=      5-min Rain = 0
KFVS 180505Z 17013KT 29/15 A2997 RMK A01 T02870151  RH  046%=      5-min Rain = 0
KFVS 180510Z 17013KT 29/15 A2997 RMK A01 T02860151  RH  046%=      5-min Rain = 0
KFVS 180515Z 17013KT 29/15 A2998 RMK A01 T02850152  RH  046%=      5-min Rain = 0
KFVS 180520Z 17013KT 28/15 A2998 RMK A01 T02840151  RH  046%=      5-min Rain = 0
KFVS 180525Z 17013KT 28/15 A2998 RMK A01 T02830151  RH  047%=      5-min Rain = 0
KFVS 180530Z 17013G18KT 28/15 A2998 RMK A01 T02830152  RH  047%=      5-min Rain = 0
KFVS 180535Z 18013G18KT 28/15 A2998 RMK A01 T02820152  RH  047%=      5-min Rain = 0
KFVS 180540Z 18014G20KT 28/15 A2998 RMK A01 T02810152  RH  047%=      5-min Rain = 0
KFVS 180545Z 18012KT 28/15 A2998 RMK A01 T02800152  RH  048%=      5-min Rain = 0
KFVS 180550Z 18012G17KT 28/15 A2998 RMK A01 T02780152  RH  048%=      5-min Rain = 0
KFVS 180555Z 17014KT 28/15 A2998 RMK A01 T02790152  RH  048%=      5-min Rain = 0
KFVS 180600Z 17014KT 28/15 A2997 RMK A01 T02780152  RH  049%=      5-min Rain = 0
KFVS 180605Z 17014KT 28/15 A2997 RMK A01 T02770153  RH  049%=      5-min Rain = 0
KFVS 180610Z 17014KT 28/15 A2997 RMK A01 T02760153  RH  049%=      5-min Rain = 0
KFVS 180615Z 17014KT 28/15 A2998 RMK A01 T02760154  RH  050%=      5-min Rain = 0
KFVS 180620Z 17013KT 28/15 A2998 RMK A01 T02760154  RH  050%=      5-min Rain = 0
KFVS 180625Z 17013KT 27/16 A2998 RMK A01 T02740155  RH  050%=      5-min Rain = 0
KFVS 180630Z 17013KT 27/16 A2998 RMK A01 T02730155  RH  051%=      5-min Rain = 0
KFVS 180635Z 17012G17KT 27/16 A2998 RMK A01 T02720156  RH  051%=      5-min Rain = 0
KFVS 180640Z 17013KT 27/16 A2998 RMK A01 T02720157  RH  052%=      5-min Rain = 0
KFVS 180645Z 17013KT 27/16 A2998 RMK A01 T02710157  RH  052%=      5-min Rain = 0
KFVS 180650Z 17012KT 27/16 A2998 RMK A01 T02690157  RH  053%=      5-min Rain = 0
KFVS 180655Z 17013G18KT 27/16 A2998 RMK A01 T02690157  RH  053%=      5-min Rain = 0
KFVS 180700Z 16015G20KT 27/16 A2997 RMK A01 T02690157  RH  053%=      5-min Rain = 0
KFVS 180705Z 16015KT 27/16 A2997 RMK A01 T02680157  RH  053%=      5-min Rain = 0
KFVS 180710Z 16014KT 27/16 A2997 RMK A01 T02670157  RH  053%=      5-min Rain = 0
KFVS 180715Z 16015KT 27/16 A2997 RMK A01 T02650157  RH  054%=      5-min Rain = 0
KFVS 180720Z 16014G19KT 26/16 A2997 RMK A01 T02640157  RH  054%=      5-min Rain = 0
KFVS 180725Z 16015G20KT 26/16 A2997 RMK A01 T02630158  RH  055%=      5-min Rain = 0
KFVS 180730Z 16014G19KT 26/16 A2997 RMK A01 T02630158  RH  055%=      5-min Rain = 0
KFVS 180735Z 16014G19KT 26/16 A2997 RMK A01 T02630159  RH  055%=      5-min Rain = 0
KFVS 180740Z 16016KT 26/16 A2997 RMK A01 T02640160  RH  055%=      5-min Rain = 0
KFVS 180745Z 17015KT 26/16 A2997 RMK A01 T02640160  RH  056%=      5-min Rain = 0
KFVS 180750Z 17015KT 26/16 A2997 RMK A01 T02630161  RH  056%=      5-min Rain = 0
KFVS 180755Z 17015KT 26/16 A2997 RMK A01 T02620161  RH  057%=      5-min Rain = 0
KFVS 180800Z 17014KT 26/16 A2997 RMK A01 T02610161  RH  057%=      5-min Rain = 0
KFVS 180805Z 17015KT 26/16 A2997 RMK A01 T02600162  RH  057%=      5-min Rain = 0
KFVS 180810Z 17014KT 26/16 A2997 RMK A01 T02600163  RH  058%=      5-min Rain = 0
KFVS 180815Z 17014G20KT 26/16 A2997 RMK A01 T02600164  RH  058%=      5-min Rain = 0
KFVS 180820Z 17017G23KT 26/17 A2997 RMK A01 T02600165  RH  058%=      5-min Rain = 0
KFVS 180825Z 17016KT 26/17 A2997 RMK A01 T02600166  RH  059%=      5-min Rain = 0
KFVS 180830Z 17016G22KT 26/17 A2997 RMK A01 T02600166  RH  059%=      5-min Rain = 0
KFVS 180835Z 17016G21KT 26/17 A2997 RMK A01 T02590167  RH  060%=      5-min Rain = 0
KFVS 180840Z 17014KT 26/17 A2997 RMK A01 T02580167  RH  060%=      5-min Rain = 0
KFVS 180845Z 17014G19KT 26/17 A2997 RMK A01 T02570168  RH  061%=      5-min Rain = 0
KFVS 180850Z 17015G20KT 26/17 A2997 RMK A01 T02560168  RH  061%=      5-min Rain = 0
KFVS 180855Z 17013KT 26/17 A2997 RMK A01 T02550168  RH  062%=      5-min Rain = 0
KFVS 180900Z 17014G19KT 25/17 A2997 RMK A01 T02540168  RH  062%=      5-min Rain = 0
KFVS 180905Z 17014KT 25/17 A2997 RMK A01 T02530169  RH  062%=      5-min Rain = 0
KFVS 180910Z 17014G19KT 25/17 A2998 RMK A01 T02530169  RH  063%=      5-min Rain = 0
KFVS 180915Z 17014KT 25/17 A2998 RMK A01 T02520170  RH  063%=      5-min Rain = 0
KFVS 180920Z 17014KT 25/17 A2998 RMK A01 T02520171  RH  064%=      5-min Rain = 0
KFVS 180925Z 17014KT 25/17 A2998 RMK A01 T02510172  RH  065%=      5-min Rain = 0
KFVS 180930Z 18013KT 25/17 A2998 RMK A01 T02510173  RH  065%=      5-min Rain = 0
KFVS 180935Z 17012KT 25/17 A2998 RMK A01 T02510174  RH  066%=      5-min Rain = 0
KFVS 180940Z 17012KT 25/18 A2998 RMK A01 T02500175  RH  066%=      5-min Rain = 0
KFVS 180945Z 18012KT 25/18 A2998 RMK A01 T02500176  RH  067%=      5-min Rain = 0
KFVS 180950Z 18012KT 25/18 A2998 RMK A01 T02510177  RH  067%=      5-min Rain = 0
KFVS 180955Z 18012KT 25/18 A2999 RMK A01 T02510178  RH  067%=      5-min Rain = 0
KFVS 181000Z 18013KT 25/18 A2999 RMK A01 T02510179  RH  068%=      5-min Rain = 0
KFVS 181005Z 18012KT 25/18 A2999 RMK A01 T02500179  RH  068%=      5-min Rain = 0
KFVS 181010Z 18013G19KT 25/18 A2999 RMK A01 T02490180  RH  069%=      5-min Rain = 0
KFVS 181015Z 18012KT 25/18 A2999 RMK A01 T02500181  RH  069%=      5-min Rain = 0
KFVS 181020Z 18013KT 25/18 A2999 RMK A01 T02500181  RH  069%=      5-min Rain = 0
KFVS 181025Z 18014G19KT 25/18 A2999 RMK A01 T02500182  RH  070%=      5-min Rain = 0
KFVS 181030Z 18013KT 25/18 A30 RMK A01 T02500183  RH  070%=      5-min Rain = 0
KFVS 181035Z 18012G18KT 25/18 A30 RMK A01 T02490183  RH  070%=      5-min Rain = 0
KFVS 181040Z 18011KT 25/18 A30 RMK A01 T02480183  RH  071%=      5-min Rain = 0
KFVS 181045Z 18012KT 25/18 A30 RMK A01 T02470183  RH  071%=      5-min Rain = 0
KFVS 181050Z 18013KT 25/18 A30 RMK A01 T02480184  RH  071%=      5-min Rain = 0
KFVS 181055Z 18012KT 25/18 A30 RMK A01 T02470184  RH  072%=      5-min Rain = 0
KFVS 181100Z 18012KT 25/18 A30 RMK A01 T02460184  RH  072%=      5-min Rain = 0
KFVS 181105Z 18012KT 25/18 A30 RMK A01 T02450184  RH  073%=      5-min Rain = 0
KFVS 181110Z 18012KT 24/18 A30 RMK A01 T02440184  RH  073%=      5-min Rain = 0
KFVS 181115Z 18012KT 24/18 A30 RMK A01 T02430184  RH  073%=      5-min Rain = 0
KFVS 181120Z 17012KT 24/18 A2999 RMK A01 T02420184  RH  074%=      5-min Rain = 0
KFVS 181125Z 17011KT 24/18 A30 RMK A01 T02410184  RH  074%=      5-min Rain = 0
KFVS 181130Z 17011G16KT 24/18 A2999 RMK A01 T02400184  RH  075%=      5-min Rain = 0
KFVS 181135Z 17013KT 24/18 A2999 RMK A01 T02400184  RH  075%=      5-min Rain = 0
KFVS 181140Z 17013G18KT 24/18 A2999 RMK A01 T02390184  RH  075%=      5-min Rain = 0
KFVS 181145Z 17012KT 24/18 A2999 RMK A01 T02390184  RH  076%=      5-min Rain = 0
KFVS 181200Z 17013KT 24/19 A2999 RMK A01 T02370185  RH  077%=      5-min Rain = 0
KFVS 181205Z 17013G18KT 24/19 A2999 RMK A01 T02370185  RH  077%=      5-min Rain = 0
KFVS 181210Z 17013KT 24/19 A30 RMK A01 T02370186  RH  077%=      5-min Rain = 0
KFVS 181215Z 17013KT 24/19 A30 RMK A01 T02370186  RH  078%=      5-min Rain = 0
KFVS 181220Z 17013G18KT 24/19 A30 RMK A01 T02370187  RH  078%=      5-min Rain = 0
KFVS 181225Z 17014KT 24/19 A30 RMK A01 T02370187  RH  078%=      5-min Rain = 0
KFVS 181230Z 17013KT 24/19 A2999 RMK A01 T02380188  RH  078%=      5-min Rain = 0
KFVS 181235Z 17014KT 24/19 A2999 RMK A01 T02390189  RH  078%=      5-min Rain = 0
KFVS 181240Z 17014G19KT 24/19 A2999 RMK A01 T02400189  RH  078%=      5-min Rain = 0
KFVS 181245Z 17013G19KT 24/19 A30 RMK A01 T02410190  RH  077%=      5-min Rain = 0
KFVS 181250Z 17016KT 24/19 A2999 RMK A01 T02420190  RH  077%=      5-min Rain = 0
KFVS 181255Z 17014KT 24/19 A2999 RMK A01 T02430191  RH  077%=      5-min Rain = 0
KFVS 181300Z 17015G21KT 25/19 A2999 RMK A01 T02450191  RH  076%=      5-min Rain = 0
KFVS 181305Z 17017G22KT 25/19 A2999 RMK A01 T02460192  RH  076%=      5-min Rain = 0
KFVS 181310Z 17017KT 25/19 A2999 RMK A01 T02470192  RH  076%=      5-min Rain = 0
KFVS 181315Z 17018KT 25/19 A2999 RMK A01 T02480192  RH  075%=      5-min Rain = 0
KFVS 181320Z 17016G22KT 25/19 A2999 RMK A01 T02500193  RH  075%=      5-min Rain = 0
KFVS 181325Z 17018G24KT 25/19 A2999 RMK A01 T02500193  RH  074%=      5-min Rain = 0
KFVS 181330Z 17017G22KT 25/19 A2999 RMK A01 T02520193  RH  074%=      5-min Rain = 0
KFVS 181335Z 17015KT 26/19 A30 RMK A01 T02550194  RH  073%=      5-min Rain = 0
KFVS 181340Z 18016G21KT 26/19 A2999 RMK A01 T02560193  RH  072%=      5-min Rain = 0
KFVS 181345Z 18016G22KT 26/19 A2999 RMK A01 T02560193  RH  072%=      5-min Rain = 0
KFVS 181350Z 18017KT 26/19 A2999 RMK A01 T02570193  RH  072%=      5-min Rain = 0
KFVS 181355Z 18019G24KT 26/19 A2999 RMK A01 T02580193  RH  071%=      5-min Rain = 0
KFVS 181400Z 18017G23KT 26/19 A2999 RMK A01 T02590193  RH  071%=      5-min Rain = 0
KFVS 181405Z 18020G25KT 26/19 A2999 RMK A01 T02600193  RH  070%=      5-min Rain = 0
KFVS 181410Z 18017G22KT 26/19 A2999 RMK A01 T02640194  RH  069%=      5-min Rain = 0
KFVS 181415Z 18019G27KT 27/19 A2999 RMK A01 T02650192  RH  068%=      5-min Rain = 0
KFVS 181420Z 18020G27KT 27/19 A2999 RMK A01 T02660192  RH  067%=      5-min Rain = 0
KFVS 181425Z 18019G24KT 27/19 A2999 RMK A01 T02670192  RH  067%=      5-min Rain = 0
KFVS 181430Z 19018G25KT 27/19 A2999 RMK A01 T02700191  RH  066%=      5-min Rain = 0
KFVS 181435Z 19018KT 27/19 A2999 RMK A01 T02720192  RH  065%=      5-min Rain = 0
KFVS 181440Z 19017G22KT 27/19 A2999 RMK A01 T02730193  RH  065%=      5-min Rain = 0
KFVS 181445Z 19019G25KT 27/19 A2999 RMK A01 T02730191  RH  064%=      5-min Rain = 0
KFVS 181450Z 18018G25KT 27/19 A2999 RMK A01 T02740191  RH  064%=      5-min Rain = 0
KFVS 181455Z 18019KT 28/19 A2999 RMK A01 T02750191  RH  063%=      5-min Rain = 0
KFVS 181500Z 18017G24KT 28/19 A2999 RMK A01 T02790191  RH  062%=      5-min Rain = 0
KFVS 181505Z 18017G23KT 28/19 A2999 RMK A01 T02810191  RH  062%=      5-min Rain = 0
KFVS 181510Z 18017G24KT 28/19 A2999 RMK A01 T02840191  RH  060%=      5-min Rain = 0
KFVS 181515Z 18017G23KT 28/19 A2999 RMK A01 T02840190  RH  060%=      5-min Rain = 0
KFVS 181520Z 19018G27KT 29/19 A2999 RMK A01 T02850190  RH  059%=      5-min Rain = 0
KFVS 181525Z 20017G24KT 29/19 A2999 RMK A01 T02880188  RH  058%=      5-min Rain = 0
KFVS 181530Z 19017G23KT 29/19 A2999 RMK A01 T02900189  RH  057%=      5-min Rain = 0
KFVS 181535Z 19017G23KT 29/19 A2999 RMK A01 T02920189  RH  057%=      5-min Rain = 0
KFVS 181540Z 19019G24KT 29/19 A2999 RMK A01 T02920187  RH  056%=      5-min Rain = 0
KFVS 181545Z 19017G25KT 29/19 A2998 RMK A01 T02930187  RH  056%=      5-min Rain = 0
KFVS 181550Z 19018KT 30/19 A2998 RMK A01 T02950187  RH  055%=      5-min Rain = 0
KFVS 181555Z 19017G23KT 30/19 A2998 RMK A01 T02990186  RH  054%=      5-min Rain = 0
KFVS 181600Z 19017G22KT 30/19 A2998 RMK A01 T03030186  RH  052%=      5-min Rain = 0
KFVS 181605Z 19016G22KT 30/19 A2998 RMK A01 T03020185  RH  052%=      5-min Rain = 0
KFVS 181610Z 18019G24KT 30/19 A2998 RMK A01 T03040185  RH  052%=      5-min Rain = 0
KFVS 181615Z 19018G23KT 31/19 A2998 RMK A01 T03050185  RH  051%=      5-min Rain = 0
KFVS 181620Z 18018G25KT 31/18 A2998 RMK A01 T03060181  RH  050%=      5-min Rain = 0
KFVS 181625Z 18016G22KT 31/18 A2998 RMK A01 T03080182  RH  050%=      5-min Rain = 0
KFVS 181630Z 20017G22KT 31/18 A2998 RMK A01 T03090181  RH  049%=      5-min Rain = 0
KFVS 181635Z 20018G26KT 31/18 A2998 RMK A01 T03130181  RH  048%=      5-min Rain = 0
KFVS 181640Z 20016G23KT 31/18 A2998 RMK A01 T03140180  RH  047%=      5-min Rain = 0
KFVS 181645Z 20014KT 32/18 A2998 RMK A01 T03150181  RH  047%=      5-min Rain = 0
KFVS 181650Z 19014G19KT 32/18 A2998 RMK A01 T03210180  RH  046%=      5-min Rain = 0
KFVS 181655Z 19017G23KT 32/18 A2997 RMK A01 T03190178  RH  045%=      5-min Rain = 0
KFVS 181700Z 19016G23KT 32/18 A2997 RMK A01 T03200177  RH  045%=      5-min Rain = 0
KFVS 181705Z 19016G22KT 32/18 A2997 RMK A01 T03220179  RH  045%=      5-min Rain = 0
KFVS 181710Z 19016KT 33/18 A2997 RMK A01 T03250178  RH  044%=      5-min Rain = 0
KFVS 181715Z 19016G21KT 33/18 A2997 RMK A01 T03260178  RH  044%=      5-min Rain = 0
KFVS 181720Z 20016G22KT 33/18 A2997 RMK A01 T03290175  RH  042%=      5-min Rain = 0
KFVS 181725Z 20016G23KT 33/18 A2997 RMK A01 T03310175  RH  041%=      5-min Rain = 0
KFVS 181730Z 19015G22KT 33/17 A2997 RMK A01 T03310174  RH  041%=      5-min Rain = 0
KFVS 181735Z 19017G24KT 33/18 A2997 RMK A01 T03320176  RH  042%=      5-min Rain = 0
KFVS 181740Z 19015G20KT 33/18 A2997 RMK A01 T03320176  RH  042%=      5-min Rain = 0
KFVS 181745Z 20013G21KT 34/18 A2997 RMK A01 T03370175  RH  040%=      5-min Rain = 0
KFVS 181750Z 19018KT 34/18 A2996 RMK A01 T03360175  RH  040%=      5-min Rain = 0
KFVS 181755Z 20016G22KT 34/17 A2996 RMK A01 T03360173  RH  040%=      5-min Rain = 0
KFVS 181800Z 19015G22KT 34/17 A2996 RMK A01 T03370172  RH  039%=      5-min Rain = 0
KFVS 181805Z 19017KT 34/17 A2996 RMK A01 T03380172  RH  039%=      5-min Rain = 0
KFVS 181810Z 20015G22KT 34/17 A2996 RMK A01 T03380168  RH  038%=      5-min Rain = 0
KFVS 181815Z 20015G21KT 34/17 A2996 RMK A01 T03430171  RH  038%=      5-min Rain = 0
KFVS 181820Z 21015G20KT 35/17 A2995 RMK A01 T03450168  RH  037%=      5-min Rain = 0
KFVS 181825Z 19015G23KT 35/17 A2995 RMK A01 T03470170  RH  037%=      5-min Rain = 0
KFVS 181830Z 18015G21KT 35/17 A2995 RMK A01 T03460172  RH  038%=      5-min Rain = 0
KFVS 181835Z 20014G22KT 35/17 A2995 RMK A01 T03480168  RH  036%=      5-min Rain = 0
KFVS 181840Z 19013G22KT 35/17 A2995 RMK A01 T03470167  RH  036%=      5-min Rain = 0
KFVS 181845Z 18015G22KT 35/17 A2995 RMK A01 T03470169  RH  036%=      5-min Rain = 0
KFVS 181850Z 18013G21KT 35/17 A2995 RMK A01 T03470169  RH  037%=      5-min Rain = 0
KFVS 181855Z 18014G21KT 35/17 A2995 RMK A01 T03490168  RH  036%=      5-min Rain = 0
KFVS 181900Z 18015KT 35/17 A2995 RMK A01 T03500166  RH  035%=      5-min Rain = 0
KFVS 181905Z 18013G19KT 35/17 A2994 RMK A01 T03510166  RH  035%=      5-min Rain = 0
KFVS 181910Z 17015G21KT 35/16 A2994 RMK A01 T03520164  RH  034%=      5-min Rain = 0
KFVS 181915Z 17015G21KT 36/17 A2994 RMK A01 T03570165  RH  034%=      5-min Rain = 0
KFVS 181920Z 18013G20KT 36/17 A2994 RMK A01 T03580167  RH  034%=      5-min Rain = 0
KFVS 181925Z 18015G21KT 36/17 A2993 RMK A01 T03570166  RH  034%=      5-min Rain = 0
KFVS 181930Z 17014G19KT 36/17 A2993 RMK A01 T03560166  RH  034%=      5-min Rain = 0
KFVS 181935Z 19013G21KT 36/16 A2993 RMK A01 T03610163  RH  033%=      5-min Rain = 0
KFVS 181940Z 18014G21KT 36/16 A2993 RMK A01 T03620164  RH  033%=      5-min Rain = 0
KFVS 181945Z 17013G20KT 36/16 A2993 RMK A01 T03580164  RH  033%=      5-min Rain = 0
KFVS 181950Z 18015G21KT 36/16 A2993 RMK A01 T03580163  RH  033%=      5-min Rain = 0
KFVS 181955Z 18015G22KT 36/16 A2993 RMK A01 T03600161  RH  032%=      5-min Rain = 0
KFVS 182000Z 17016G23KT 36/16 A2993 RMK A01 T03600162  RH  032%=      5-min Rain = 0
KFVS 182005Z 18015G20KT 36/17 A2993 RMK A01 T03620165  RH  033%=      5-min Rain = 0
KFVS 182010Z 19014G23KT 37/16 A2992 RMK A01 T03650159  RH  031%=      5-min Rain = 0
KFVS 182015Z 17017G22KT 37/16 A2992 RMK A01 T03650160  RH  031%=      5-min Rain = 0
KFVS 182020Z 17013KT 37/16 A2992 RMK A01 T03650158  RH  031%=      5-min Rain = 0
KFVS 182025Z 20012G18KT 37/16 A2992 RMK A01 T03660159  RH  031%=      5-min Rain = 0
KFVS 182030Z 18016G21KT 37/16 A2992 RMK A01 T03650164  RH  032%=      5-min Rain = 0
KFVS 182035Z 18016G24KT 37/16 A2992 RMK A01 T03670161  RH  031%=      5-min Rain = 0
KFVS 182040Z 18016G21KT 37/16 A2992 RMK A01 T03700160  RH  030%=      5-min Rain = 0
KFVS 182045Z 18013G20KT 37/16 A2991 RMK A01 T03720158  RH  030%=      5-min Rain = 0
KFVS 182050Z 18016G23KT 37/16 A2991 RMK A01 T03710160  RH  030%=      5-min Rain = 0
KFVS 182055Z 18011G18KT 37/16 A2991 RMK A01 T03670156  RH  030%=      5-min Rain = 0
KFVS 182100Z 16014G22KT 37/16 A2991 RMK A01 T03670160  RH  031%=      5-min Rain = 0
KFVS 182105Z 18014G19KT 37/16 A2991 RMK A01 T03690156  RH  030%=      5-min Rain = 0
KFVS 182110Z 17012G25KT 37/16 A2991 RMK A01 T03700162  RH  031%=      5-min Rain = 0
KFVS 182115Z 16016KT 37/16 A299 RMK A01 T03720161  RH  030%=      5-min Rain = 0
KFVS 182120Z 16015G22KT 37/16 A299 RMK A01 T03730160  RH  030%=      5-min Rain = 0
KFVS 182125Z 18011G19KT 37/16 A299 RMK A01 T03720158  RH  030%=      5-min Rain = 0
KFVS 182130Z 19017G22KT 37/16 A299 RMK A01 T03680157  RH  030%=      5-min Rain = 0
KFVS 182135Z 17015G20KT 37/16 A299 RMK A01 T03670157  RH  030%=      5-min Rain = 0
KFVS 182140Z 17016G21KT 37/16 A2989 RMK A01 T03730158  RH  030%=      5-min Rain = 0
KFVS 182145Z 16016G21KT 37/16 A2989 RMK A01 T03740156  RH  029%=      5-min Rain = 0
KFVS 182150Z 19014G21KT 37/15 A2989 RMK A01 T03730152  RH  028%=      5-min Rain = 0
KFVS 182155Z 18014G20KT 37/15 A2989 RMK A01 T03730145  RH  027%=      5-min Rain = 0
KFVS 182200Z 18016G24KT 37/15 A2989 RMK A01 T03720149  RH  028%=      5-min Rain = 0
KFVS 182205Z 17012G19KT 37/15 A2989 RMK A01 T03730153  RH  028%=      5-min Rain = 0
KFVS 182210Z 16015G21KT 37/15 A2989 RMK A01 T03730154  RH  029%=      5-min Rain = 0
KFVS 182215Z 17014G20KT 37/15 A2989 RMK A01 T03720151  RH  028%=      5-min Rain = 0
KFVS 182220Z 20012G19KT 37/15 A2988 RMK A01 T03720149  RH  028%=      5-min Rain = 0
KFVS 182225Z 17013KT 37/15 A2988 RMK A01 T03680149  RH  028%=      5-min Rain = 0
KFVS 182230Z 17015KT 37/15 A2988 RMK A01 T03730150  RH  028%=      5-min Rain = 0
KFVS 182235Z 17014G20KT 37/15 A2988 RMK A01 T03740152  RH  028%=      5-min Rain = 0
KFVS 182240Z 18016G24KT 37/15 A2988 RMK A01 T03720151  RH  028%=      5-min Rain = 0
KFVS 182245Z 17017G24KT 38/15 A2987 RMK A01 T03750148  RH  027%=      5-min Rain = 0
KFVS 182250Z 17015G20KT 37/15 A2987 RMK A01 T03740147  RH  027%=      5-min Rain = 0
KFVS 182255Z 17014G20KT 37/15 A2987 RMK A01 T03720146  RH  027%=      5-min Rain = 0
KFVS 182300Z 15018G23KT 37/15 A2987 RMK A01 T03710145  RH  027%=      5-min Rain = 0
KFVS 182305Z 17013G18KT 37/15 A2987 RMK A01 T03700147  RH  028%=      5-min Rain = 0
KFVS 182310Z 18016G22KT 37/15 A2987 RMK A01 T03730145  RH  027%=      5-min Rain = 0
KFVS 182315Z 19014KT 37/14 A2987 RMK A01 T03690141  RH  027%=      5-min Rain = 0
KFVS 182320Z 17016G21KT 37/14 A2986 RMK A01 T03710144  RH  027%=      5-min Rain = 0
KFVS 182325Z 16016G21KT 37/15 A2986 RMK A01 T03700145  RH  027%=      5-min Rain = 0
KFVS 182330Z 16015G21KT 37/15 A2986 RMK A01 T03700146  RH  028%=      5-min Rain = 0
KFVS 182335Z 15018G23KT 37/14 A2985 RMK A01 T03680144  RH  028%=      5-min Rain = 0
KFVS 182340Z 17017G24KT 37/14 A2985 RMK A01 T03680142  RH  027%=      5-min Rain = 0
KFVS 182345Z 17014G22KT 37/14 A2985 RMK A01 T03680141  RH  027%=      5-min Rain = 0
KFVS 182350Z 16015G21KT 37/14 A2985 RMK A01 T03670140  RH  027%=      5-min Rain = 0
KFVS 182355Z 16017G22KT 37/15 A2985 RMK A01 T03660147  RH  028%=      5-min Rain = 0
KFVS 190000Z 15015G21KT 37/14 A2985 RMK A01 T03650144  RH  028%=      5-min Rain = 0
KFVS 190005Z 16016G21KT 37/15 A2985 RMK A01 T03660146  RH  028%=      5-min Rain = 0
KFVS 190010Z 16016G21KT 36/15 A2985 RMK A01 T03630152  RH  030%=      5-min Rain = 0
KFVS 190015Z 15018G24KT 36/16 A2985 RMK A01 T03600155  RH  031%=      5-min Rain = 0
KFVS 190020Z 15017G23KT 36/16 A2985 RMK A01 T03590155  RH  031%=      5-min Rain = 0
KFVS 190025Z 16017G24KT 36/15 A2986 RMK A01 T03590151  RH  030%=      5-min Rain = 0
KFVS 190030Z 16018G24KT 36/15 A2986 RMK A01 T03580154  RH  031%=      5-min Rain = 0
KFVS 190035Z 16018G23KT 36/16 A2986 RMK A01 T03560156  RH  032%=      5-min Rain = 0
KFVS 190040Z 16016G23KT 35/16 A2986 RMK A01 T03540157  RH  032%=      5-min Rain = 0
KFVS 190045Z 15018G25KT 35/16 A2986 RMK A01 T03530157  RH  033%=      5-min Rain = 0
KFVS 190050Z 15019G24KT 35/16 A2986 RMK A01 T03500157  RH  033%=      5-min Rain = 0
KFVS 190055Z 16016G23KT 35/16 A2986 RMK A01 T03500157  RH  033%=      5-min Rain = 0
KFVS 190100Z 16015G21KT 35/16 A2987 RMK A01 T03490158  RH  034%=      5-min Rain = 0
KFVS 190105Z 16017G23KT 35/16 A2987 RMK A01 T03490156  RH  033%=      5-min Rain = 0
KFVS 190110Z 16018G25KT 35/16 A2987 RMK A01 T03470155  RH  033%=      5-min Rain = 0
KFVS 190115Z 16018G23KT 35/15 A2987 RMK A01 T03460154  RH  033%=      5-min Rain = 0
KFVS 190120Z 16017G22KT 34/16 A2987 RMK A01 T03440155  RH  034%=      5-min Rain = 0
KFVS 190125Z 16017G22KT 34/15 A2987 RMK A01 T03430154  RH  034%=      5-min Rain = 0
KFVS 190130Z 16015KT 34/15 A2987 RMK A01 T03410154  RH  034%=      5-min Rain = 0
KFVS 190135Z 16016G21KT 34/15 A2987 RMK A01 T03390153  RH  034%=      5-min Rain = 0
KFVS 190140Z 16017G23KT 34/15 A2987 RMK A01 T03380152  RH  034%=      5-min Rain = 0
KFVS 190145Z 16017G23KT 34/15 A2987 RMK A01 T03370152  RH  035%=      5-min Rain = 0
KFVS 190150Z 16018KT 34/15 A2987 RMK A01 T03350153  RH  035%=      5-min Rain = 0
KFVS 190155Z 16017G22KT 33/15 A2987 RMK A01 T03340153  RH  035%=      5-min Rain = 0
KFVS 190200Z 16015G20KT 33/15 A2987 RMK A01 T03320153  RH  036%=      5-min Rain = 0
KFVS 190205Z 16015G21KT 33/15 A2987 RMK A01 T03310153  RH  036%=      5-min Rain = 0
KFVS 190210Z 16013G19KT 33/15 A2988 RMK A01 T03290154  RH  036%=      5-min Rain = 0
KFVS 190215Z 16014G19KT 33/15 A2988 RMK A01 T03280154  RH  037%=      5-min Rain = 0
KFVS 190220Z 16014G22KT 33/15 A2988 RMK A01 T03280154  RH  037%=      5-min Rain = 0
KFVS 190225Z 16013KT 33/15 A2988 RMK A01 T03260154  RH  037%=      5-min Rain = 0
KFVS 190230Z 16013G18KT 32/15 A2988 RMK A01 T03240154  RH  038%=      5-min Rain = 0
KFVS 190235Z 17015G21KT 32/16 A2988 RMK A01 T03240155  RH  038%=      5-min Rain = 0
KFVS 190240Z 17014G19KT 32/16 A2989 RMK A01 T03240155  RH  038%=      5-min Rain = 0
KFVS 190245Z 16015KT 32/16 A2989 RMK A01 T03220155  RH  038%=      5-min Rain = 0
KFVS 190250Z 17015G22KT 32/16 A2989 RMK A01 T03220155  RH  038%=      5-min Rain = 0
KFVS 190255Z 16015G20KT 32/16 A2989 RMK A01 T03210155  RH  038%=      5-min Rain = 0
KFVS 190300Z 16014G20KT 32/15 A2989 RMK A01 T03200154  RH  039%=      5-min Rain = 0
KFVS 190305Z 16016G21KT 32/15 A2989 RMK A01 T03190154  RH  039%=      5-min Rain = 0
KFVS 190310Z 16015G22KT 32/15 A2989 RMK A01 T03190154  RH  039%=      5-min Rain = 0
KFVS 190315Z 16014G21KT 32/15 A299 RMK A01 T03180154  RH  039%=      5-min Rain = 0
KFVS 190320Z 16012KT 32/15 A299 RMK A01 T03150154  RH  040%=      5-min Rain = 0
KFVS 190325Z 16012KT 31/15 A299 RMK A01 T03120154  RH  040%=      5-min Rain = 0
KFVS 190330Z 16012KT 31/15 A299 RMK A01 T03100154  RH  041%=      5-min Rain = 0
KFVS 190335Z 16013G18KT 31/16 A2991 RMK A01 T03100155  RH  041%=      5-min Rain = 0
KFVS 190340Z 16013KT 31/16 A2991 RMK A01 T03100155  RH  041%=      5-min Rain = 0
KFVS 190345Z 16012G17KT 31/16 A2991 RMK A01 T03080156  RH  042%=      5-min Rain = 0
KFVS 190350Z 16013KT 31/16 A2991 RMK A01 T03060157  RH  042%=      5-min Rain = 0
KFVS 190355Z 16014G19KT 31/16 A2991 RMK A01 T03060158  RH  043%=      5-min Rain = 0
KFVS 190400Z 16014G20KT 31/16 A2991 RMK A01 T03050157  RH  043%=      5-min Rain = 0
KFVS 190405Z 16013G18KT 30/16 A2991 RMK A01 T03040157  RH  043%=      5-min Rain = 0
KFVS 190410Z 16015G20KT 30/16 A2991 RMK A01 T03040157  RH  043%=      5-min Rain = 0
KFVS 190415Z 16016G21KT 30/16 A2991 RMK A01 T03040158  RH  043%=      5-min Rain = 0
KFVS 190420Z 16015G20KT 30/16 A2992 RMK A01 T03030157  RH  043%=      5-min Rain = 0
KFVS 190425Z 16015KT 30/16 A2992 RMK A01 T03020157  RH  043%=      5-min Rain = 0
KFVS 190430Z 17016KT 30/16 A2992 RMK A01 T03020157  RH  044%=      5-min Rain = 0
KFVS 190435Z 16016G21KT 30/16 A2992 RMK A01 T03010157  RH  044%=      5-min Rain = 0
KFVS 190440Z 17016G21KT 30/16 A2993 RMK A01 T03000157  RH  044%=      5-min Rain = 0
KFVS 190445Z 17015G20KT 30/16 A2993 RMK A01 T02990157  RH  044%=      5-min Rain = 0
KFVS 190450Z 17015KT 30/16 A2993 RMK A01 T02980157  RH  044%=      5-min Rain = 0
KFVS 190455Z 17015G20KT 30/16 A2993 RMK A01 T02970157  RH  045%=      5-min Rain = 0

Page generated in 0.0169 seconds.